createdAt,value
2023-03-27T00:00:03.181Z,28.3540
2023-03-27T00:00:14.217Z,28.3770
2023-03-27T00:00:25.287Z,28.3930
2023-03-27T00:00:36.340Z,28.4070
2023-03-27T00:00:47.590Z,28.4120
2023-03-27T00:00:58.682Z,28.4200
2023-03-27T00:01:09.694Z,28.4200
2023-03-27T00:01:20.712Z,28.4120
2023-03-27T00:01:31.794Z,28.4120
2023-03-27T00:01:42.869Z,28.4170
2023-03-27T00:01:53.943Z,28.4140
2023-03-27T00:02:05.234Z,28.4140
2023-03-27T00:02:16.693Z,28.4250
2023-03-27T00:02:27.826Z,28.4200
2023-03-27T00:02:38.939Z,28.4200
2023-03-27T00:02:50.178Z,28.4140
2023-03-27T00:03:01.384Z,28.4090
2023-03-27T00:03:13.143Z,28.4200
2023-03-27T00:03:24.332Z,28.4300
2023-03-27T00:03:35.502Z,28.4300
2023-03-27T00:03:46.675Z,28.4090
2023-03-27T00:03:57.778Z,28.3930
2023-03-27T00:04:08.856Z,28.3870
2023-03-27T00:04:19.979Z,28.3980
2023-03-27T00:04:31.189Z,28.4140
2023-03-27T00:04:42.264Z,28.4140
2023-03-27T00:04:53.334Z,28.3980
2023-03-27T00:05:04.386Z,28.4090
2023-03-27T00:05:15.436Z,28.4040
2023-03-27T00:05:26.465Z,28.4090
2023-03-27T00:05:37.527Z,28.4040
2023-03-27T00:05:48.569Z,28.4040
2023-03-27T00:05:59.632Z,28.3930
2023-03-27T00:06:10.674Z,28.4040
2023-03-27T00:06:21.757Z,28.3930
2023-03-27T00:06:32.836Z,28.4090
2023-03-27T00:06:43.882Z,28.4140
2023-03-27T00:06:54.981Z,28.4140
2023-03-27T00:07:06.042Z,28.4250
2023-03-27T00:07:17.088Z,28.4200
2023-03-27T00:07:28.167Z,28.4200
2023-03-27T00:07:39.221Z,28.4100
2023-03-27T00:07:50.270Z,28.3940
2023-03-27T00:08:01.329Z,28.3890
2023-03-27T00:08:12.366Z,28.3900
2023-03-27T00:08:23.471Z,28.3970
2023-03-27T00:08:34.509Z,28.3770
2023-03-27T00:08:45.568Z,28.3890
2023-03-27T00:08:56.643Z,28.3780
2023-03-27T00:09:07.697Z,28.3570
2023-03-27T00:09:18.778Z,28.3340
2023-03-27T00:09:29.910Z,28.3570
2023-03-27T00:09:40.966Z,28.3540
2023-03-27T00:09:52.027Z,28.3640
2023-03-27T00:10:03.067Z,28.3730
2023-03-27T00:10:14.132Z,28.3780
2023-03-27T00:10:25.203Z,28.3890
2023-03-27T00:10:36.251Z,28.3840
2023-03-27T00:10:47.307Z,28.3840
2023-03-27T00:10:58.550Z,28.3730
2023-03-27T00:11:09.633Z,28.3780
2023-03-27T00:11:20.689Z,28.3930
2023-03-27T00:11:31.757Z,28.4090
2023-03-27T00:11:42.812Z,28.4090
2023-03-27T00:11:53.862Z,28.4140
2023-03-27T00:12:04.921Z,28.4200
2023-03-27T00:12:15.992Z,28.4200
2023-03-27T00:12:27.048Z,28.4250
2023-03-27T00:12:38.079Z,28.4410
2023-03-27T00:12:49.143Z,28.4470
2023-03-27T00:13:00.189Z,28.4600
2023-03-27T00:13:11.229Z,28.4750
2023-03-27T00:13:22.293Z,28.4750
2023-03-27T00:13:33.340Z,28.4810
2023-03-27T00:13:50.581Z,28.4750
2023-03-27T00:14:01.364Z,28.6270
2023-03-27T00:14:12.386Z,28.5930
2023-03-27T00:14:23.422Z,28.5400
2023-03-27T00:14:34.484Z,28.5110
2023-03-27T00:14:45.558Z,28.5110
2023-03-27T00:14:56.623Z,28.5280
2023-03-27T00:15:07.691Z,28.5220
2023-03-27T00:15:18.776Z,28.5280
2023-03-27T00:15:29.831Z,28.5110
2023-03-27T00:15:40.893Z,28.5170
2023-03-27T00:15:51.948Z,28.5110
2023-03-27T00:16:03.020Z,28.5220
2023-03-27T00:16:14.085Z,28.5200
2023-03-27T00:16:25.373Z,28.5050
2023-03-27T00:16:36.918Z,28.5120
2023-03-27T00:16:48.675Z,28.5150
2023-03-27T00:16:59.752Z,28.5100
2023-03-27T00:17:10.806Z,28.5150
2023-03-27T00:17:21.862Z,28.4990
2023-03-27T00:17:32.953Z,28.4990
2023-03-27T00:17:44.047Z,28.4910
2023-03-27T00:17:55.081Z,28.4750
2023-03-27T00:18:06.186Z,28.4800
2023-03-27T00:18:17.262Z,28.4760
2023-03-27T00:18:28.349Z,28.4540
2023-03-27T00:18:39.380Z,28.4400
2023-03-27T00:18:50.443Z,28.4400
2023-03-27T00:19:01.496Z,28.4290
2023-03-27T00:19:12.530Z,28.4450
2023-03-27T00:19:23.596Z,28.4290
2023-03-27T00:19:34.627Z,28.4400
2023-03-27T00:19:45.724Z,28.4330
2023-03-27T00:19:56.797Z,28.4380
2023-03-27T00:20:07.861Z,28.4470
2023-03-27T00:20:18.909Z,28.4750
2023-03-27T00:20:29.980Z,28.4850
2023-03-27T00:20:41.047Z,28.4810
2023-03-27T00:20:52.094Z,28.4760
2023-03-27T00:21:03.119Z,28.4650
2023-03-27T00:21:14.228Z,28.4540
2023-03-27T00:21:25.281Z,28.4700
2023-03-27T00:21:36.352Z,28.4650
2023-03-27T00:21:47.410Z,28.4650
2023-03-27T00:21:58.469Z,28.4690
2023-03-27T00:22:09.525Z,28.4850
2023-03-27T00:22:20.574Z,28.4910
2023-03-27T00:22:31.624Z,28.4960
2023-03-27T00:22:42.684Z,28.5010
2023-03-27T00:22:53.749Z,28.4910
2023-03-27T00:23:04.804Z,28.4960
2023-03-27T00:23:15.869Z,28.5070
2023-03-27T00:23:26.935Z,28.5260
2023-03-27T00:23:37.993Z,28.5420
2023-03-27T00:23:49.051Z,28.5420
2023-03-27T00:24:00.142Z,28.5420
2023-03-27T00:24:11.199Z,28.5300
2023-03-27T00:24:22.278Z,28.5180
2023-03-27T00:24:33.301Z,28.5300
2023-03-27T00:24:44.346Z,28.5230
2023-03-27T00:24:55.417Z,28.5180
2023-03-27T00:25:06.496Z,28.5180
2023-03-27T00:25:17.530Z,28.5120
2023-03-27T00:25:28.599Z,28.5400
2023-03-27T00:25:39.649Z,28.5460
2023-03-27T00:25:50.699Z,28.5300
2023-03-27T00:26:01.744Z,28.5150
2023-03-27T00:26:12.785Z,28.5090
2023-03-27T00:26:23.890Z,28.5180
2023-03-27T00:26:34.951Z,28.5350
2023-03-27T00:26:45.991Z,28.5460
2023-03-27T00:26:57.082Z,28.5600
2023-03-27T00:27:08.119Z,28.5650
2023-03-27T00:27:19.180Z,28.5780
2023-03-27T00:27:30.227Z,28.5780
2023-03-27T00:27:41.271Z,28.5510
2023-03-27T00:27:52.319Z,28.5350
2023-03-27T00:28:03.387Z,28.5420
2023-03-27T00:28:14.429Z,28.5310
2023-03-27T00:28:25.469Z,28.5320
2023-03-27T00:28:36.530Z,28.5010
2023-03-27T00:28:47.607Z,28.5040
2023-03-27T00:28:58.660Z,28.4870
2023-03-27T00:29:09.710Z,28.4810
2023-03-27T00:29:20.772Z,28.4810
2023-03-27T00:29:31.829Z,28.4810
2023-03-27T00:29:42.899Z,28.4810
2023-03-27T00:29:53.979Z,28.4810
2023-03-27T00:30:05.048Z,28.4810
2023-03-27T00:30:16.113Z,28.4920
2023-03-27T00:30:27.316Z,28.4910
2023-03-27T00:30:38.425Z,28.5050
2023-03-27T00:30:49.620Z,28.5110
2023-03-27T00:31:00.766Z,28.5120
2023-03-27T00:31:11.925Z,28.5180
2023-03-27T00:31:23.200Z,28.5160
2023-03-27T00:31:34.311Z,28.5250
2023-03-27T00:31:45.388Z,28.5420
2023-03-27T00:31:56.456Z,28.5560
2023-03-27T00:32:07.516Z,28.5670
2023-03-27T00:32:18.559Z,28.5830
2023-03-27T00:32:29.661Z,28.5780
2023-03-27T00:32:40.745Z,28.5990
2023-03-27T00:32:51.806Z,28.6190
2023-03-27T00:33:02.994Z,28.6190
2023-03-27T00:33:14.131Z,28.6340
2023-03-27T00:33:25.150Z,28.6440
2023-03-27T00:33:36.228Z,28.6280
2023-03-27T00:33:47.275Z,28.6340
2023-03-27T00:33:58.318Z,28.6390
2023-03-27T00:34:09.328Z,28.6390
2023-03-27T00:34:20.370Z,28.6410
2023-03-27T00:34:31.460Z,28.6520
2023-03-27T00:34:42.502Z,28.6390
2023-03-27T00:34:53.590Z,28.6440
2023-03-27T00:35:04.748Z,28.6550
2023-03-27T00:35:15.919Z,28.6470
2023-03-27T00:35:27.014Z,28.6570
2023-03-27T00:35:38.122Z,28.6520
2023-03-27T00:35:49.221Z,28.6520
2023-03-27T00:36:00.311Z,28.6570
2023-03-27T00:36:11.349Z,28.6440
2023-03-27T00:36:22.397Z,28.6670
2023-03-27T00:36:33.444Z,28.6600
2023-03-27T00:36:44.498Z,28.6640
2023-03-27T00:36:55.508Z,28.6700
2023-03-27T00:37:06.559Z,28.6800
2023-03-27T00:37:17.620Z,28.7010
2023-03-27T00:37:28.704Z,28.7110
2023-03-27T00:37:39.724Z,28.7060
2023-03-27T00:37:50.782Z,28.7180
2023-03-27T00:38:01.817Z,28.7060
2023-03-27T00:38:12.875Z,28.7140
2023-03-27T00:38:23.919Z,28.7030
2023-03-27T00:38:34.974Z,28.7110
2023-03-27T00:38:46.052Z,28.7140
2023-03-27T00:38:57.094Z,28.7030
2023-03-27T00:39:08.152Z,28.6880
2023-03-27T00:39:19.248Z,28.6900
2023-03-27T00:39:30.319Z,28.6760
2023-03-27T00:39:41.352Z,28.6700
2023-03-27T00:39:52.421Z,28.6490
2023-03-27T00:40:03.496Z,28.6440
2023-03-27T00:40:14.542Z,28.6440
2023-03-27T00:40:25.601Z,28.6490
2023-03-27T00:40:36.663Z,28.6380
2023-03-27T00:40:47.725Z,28.6490
2023-03-27T00:40:59.083Z,28.6340
2023-03-27T00:41:10.443Z,28.6490
2023-03-27T00:41:21.606Z,28.6490
2023-03-27T00:41:32.716Z,28.6490
2023-03-27T00:41:43.792Z,28.6490
2023-03-27T00:41:54.849Z,28.6490
2023-03-27T00:42:05.922Z,28.6650
2023-03-27T00:42:16.961Z,28.6650
2023-03-27T00:42:27.992Z,28.6700
2023-03-27T00:42:39.048Z,28.6950
2023-03-27T00:42:50.108Z,28.7050
2023-03-27T00:43:01.187Z,28.7140
2023-03-27T00:43:12.243Z,28.7250
2023-03-27T00:43:23.295Z,28.7300
2023-03-27T00:43:34.361Z,28.7450
2023-03-27T00:43:45.451Z,28.7610
2023-03-27T00:43:56.469Z,28.7610
2023-03-27T00:44:07.531Z,28.7610
2023-03-27T00:44:18.592Z,28.7820
2023-03-27T00:44:29.659Z,28.7460
2023-03-27T00:44:40.679Z,28.7520
2023-03-27T00:44:51.727Z,28.7460
2023-03-27T00:45:02.814Z,28.7370
2023-03-27T00:45:13.879Z,28.7340
2023-03-27T00:45:24.914Z,28.7290
2023-03-27T00:45:35.969Z,28.7340
2023-03-27T00:45:47.023Z,28.7290
2023-03-27T00:45:58.112Z,28.7290
2023-03-27T00:46:09.187Z,28.7290
2023-03-27T00:46:20.290Z,28.7390
2023-03-27T00:46:31.659Z,28.7450
2023-03-27T00:46:43.298Z,28.7800
2023-03-27T00:46:54.416Z,28.7850
2023-03-27T00:47:05.465Z,28.7850
2023-03-27T00:47:16.521Z,28.7800
2023-03-27T00:47:27.587Z,28.7680
2023-03-27T00:47:38.693Z,28.7650
2023-03-27T00:47:49.797Z,28.7770
2023-03-27T00:48:00.872Z,28.7660
2023-03-27T00:48:11.916Z,28.7500
2023-03-27T00:48:22.981Z,28.7660
2023-03-27T00:48:34.055Z,28.7560
2023-03-27T00:48:45.112Z,28.7700
2023-03-27T00:48:56.167Z,28.7760
2023-03-27T00:49:07.192Z,28.7760
2023-03-27T00:49:18.263Z,28.7810
2023-03-27T00:49:29.312Z,28.7910
2023-03-27T00:49:40.381Z,28.7960
2023-03-27T00:49:51.443Z,28.8120
2023-03-27T00:50:02.529Z,28.8030
2023-03-27T00:50:13.600Z,28.7970
2023-03-27T00:50:24.668Z,28.8030
2023-03-27T00:50:35.734Z,28.8000
2023-03-27T00:50:46.799Z,28.7750
2023-03-27T00:50:58.084Z,28.7860
2023-03-27T00:51:09.478Z,28.8110
2023-03-27T00:51:20.505Z,28.7970
2023-03-27T00:51:31.548Z,28.8190
2023-03-27T00:51:42.599Z,28.8120
2023-03-27T00:51:53.651Z,28.8280
2023-03-27T00:52:04.708Z,28.8280
2023-03-27T00:52:15.792Z,28.8440
2023-03-27T00:52:26.834Z,28.8510
2023-03-27T00:52:37.879Z,28.8560
2023-03-27T00:52:48.954Z,28.8620
2023-03-27T00:52:59.999Z,28.8560
2023-03-27T00:53:11.037Z,28.8510
2023-03-27T00:53:22.096Z,28.8560
2023-03-27T00:53:33.174Z,28.8470
2023-03-27T00:53:44.260Z,28.8470
2023-03-27T00:53:55.321Z,28.8430
2023-03-27T00:54:06.376Z,28.8130
2023-03-27T00:54:17.458Z,28.8130
2023-03-27T00:54:28.510Z,28.8070
2023-03-27T00:54:39.601Z,28.8070
2023-03-27T00:54:50.719Z,28.8130
2023-03-27T00:55:01.796Z,28.8020
2023-03-27T00:55:12.855Z,28.8150
2023-03-27T00:55:23.891Z,28.8030
2023-03-27T00:55:34.940Z,28.7870
2023-03-27T00:55:46.018Z,28.7870
2023-03-27T00:55:57.048Z,28.7900
2023-03-27T00:56:08.111Z,28.7900
2023-03-27T00:56:19.184Z,28.7780
2023-03-27T00:56:30.243Z,28.7780
2023-03-27T00:56:41.307Z,28.7980
2023-03-27T00:56:52.351Z,28.8090
2023-03-27T00:57:03.432Z,28.8180
2023-03-27T00:57:14.491Z,28.8400
2023-03-27T00:57:25.554Z,28.8630
2023-03-27T00:57:36.624Z,28.8840
2023-03-27T00:57:47.648Z,28.8680
2023-03-27T00:57:58.792Z,28.8520
2023-03-27T00:58:09.819Z,28.8480
2023-03-27T00:58:20.880Z,28.8370
2023-03-27T00:58:31.942Z,28.8280
2023-03-27T00:58:42.983Z,28.8220
2023-03-27T00:58:54.039Z,28.8060
2023-03-27T00:59:05.099Z,28.8130
2023-03-27T00:59:16.146Z,28.8030
2023-03-27T00:59:27.218Z,28.8090
2023-03-27T00:59:38.281Z,28.7980
2023-03-27T00:59:49.348Z,28.8030
2023-03-27T01:00:00.392Z,28.8090
2023-03-27T01:00:11.470Z,28.8010
2023-03-27T01:00:22.535Z,28.8030
2023-03-27T01:00:33.602Z,28.8090
2023-03-27T01:00:44.663Z,28.8090
2023-03-27T01:00:55.865Z,28.8180
2023-03-27T01:01:07.239Z,28.8460
2023-03-27T01:01:18.336Z,28.8460
2023-03-27T01:01:29.528Z,28.8520
2023-03-27T01:01:40.729Z,28.8520
2023-03-27T01:01:51.821Z,28.8680
2023-03-27T01:02:02.860Z,28.8570
2023-03-27T01:02:13.994Z,28.8460
2023-03-27T01:02:25.152Z,28.8630
2023-03-27T01:02:36.308Z,28.8570
2023-03-27T01:02:47.436Z,28.8680
2023-03-27T01:02:58.565Z,28.8790
2023-03-27T01:03:12.467Z,28.9540
2023-03-27T01:03:23.649Z,28.9300
2023-03-27T01:03:34.900Z,28.9240
2023-03-27T01:03:46.127Z,28.9080
2023-03-27T01:03:57.269Z,28.9100
2023-03-27T01:04:08.316Z,28.9060
2023-03-27T01:04:19.371Z,28.8890
2023-03-27T01:04:30.427Z,28.8970
2023-03-27T01:04:41.501Z,28.8920
2023-03-27T01:04:52.558Z,28.8800
2023-03-27T01:05:03.671Z,28.8850
2023-03-27T01:05:14.728Z,28.8920
2023-03-27T01:05:25.769Z,28.8920
2023-03-27T01:05:36.827Z,28.8970
2023-03-27T01:05:47.880Z,28.8920
2023-03-27T01:05:58.938Z,28.8800
2023-03-27T01:06:10.024Z,28.8920
2023-03-27T01:06:21.087Z,28.8850
2023-03-27T01:06:32.121Z,28.8970
2023-03-27T01:06:43.196Z,28.9080
2023-03-27T01:06:54.247Z,28.9190
2023-03-27T01:07:05.353Z,28.9230
2023-03-27T01:07:16.405Z,28.9280
2023-03-27T01:07:27.464Z,28.9190
2023-03-27T01:07:38.507Z,28.9240
2023-03-27T01:08:01.394Z,28.9410
2023-03-27T01:08:06.520Z,29.0740
2023-03-27T01:08:17.626Z,29.0330
2023-03-27T01:08:28.644Z,29.0010
2023-03-27T01:08:39.702Z,28.9960
2023-03-27T01:08:50.756Z,29.0000
2023-03-27T01:09:01.824Z,29.0160
2023-03-27T01:09:20.355Z,29.0270
2023-03-27T01:09:29.832Z,29.1690
2023-03-27T01:09:40.871Z,29.1090
2023-03-27T01:09:52.087Z,29.0590
2023-03-27T01:10:03.157Z,29.0370
2023-03-27T01:10:14.267Z,29.0170
2023-03-27T01:10:25.329Z,29.0120
2023-03-27T01:10:36.392Z,28.9920
2023-03-27T01:10:47.409Z,28.9970
2023-03-27T01:10:58.749Z,28.9880
2023-03-27T01:11:10.116Z,29.0100
2023-03-27T01:11:21.157Z,28.9930
2023-03-27T01:11:32.216Z,28.9850
2023-03-27T01:11:43.274Z,28.9790
2023-03-27T01:11:54.335Z,28.9790
2023-03-27T01:12:05.427Z,28.9880
2023-03-27T01:12:16.459Z,29.0170
2023-03-27T01:12:27.511Z,29.0280
2023-03-27T01:12:38.576Z,29.0330
2023-03-27T01:12:49.664Z,29.0330
2023-03-27T01:13:00.717Z,29.0480
2023-03-27T01:13:11.772Z,29.0700
2023-03-27T01:13:22.843Z,29.0750
2023-03-27T01:13:33.904Z,29.0750
2023-03-27T01:13:44.961Z,29.0930
2023-03-27T01:13:56.036Z,29.0950
2023-03-27T01:14:07.102Z,29.1170
2023-03-27T01:14:18.160Z,29.1120
2023-03-27T01:14:29.217Z,29.1050
2023-03-27T01:14:40.280Z,29.1200
2023-03-27T01:14:51.351Z,29.1430
2023-03-27T01:15:02.403Z,29.1540
2023-03-27T01:15:13.460Z,29.1480
2023-03-27T01:15:24.526Z,29.1390
2023-03-27T01:15:35.693Z,29.1250
2023-03-27T01:15:46.821Z,29.1140
2023-03-27T01:15:57.857Z,29.1030
2023-03-27T01:16:08.951Z,29.0870
2023-03-27T01:16:19.983Z,29.1090
2023-03-27T01:16:31.038Z,29.1140
2023-03-27T01:16:42.136Z,29.1300
2023-03-27T01:16:53.374Z,29.1350
2023-03-27T01:17:04.433Z,29.1250
2023-03-27T01:17:15.513Z,29.1350
2023-03-27T01:17:26.628Z,29.1300
2023-03-27T01:17:37.718Z,29.1500
2023-03-27T01:17:48.836Z,29.1460
2023-03-27T01:17:59.916Z,29.1550
2023-03-27T01:18:10.962Z,29.1660
2023-03-27T01:18:22.006Z,29.1810
2023-03-27T01:18:33.060Z,29.1790
2023-03-27T01:18:44.125Z,29.2010
2023-03-27T01:18:55.169Z,29.2010
2023-03-27T01:19:06.243Z,29.2120
2023-03-27T01:19:17.285Z,29.2120
2023-03-27T01:19:28.344Z,29.2060
2023-03-27T01:19:39.406Z,29.1970
2023-03-27T01:19:50.450Z,29.1770
2023-03-27T01:20:01.512Z,29.1750
2023-03-27T01:20:12.556Z,29.1580
2023-03-27T01:20:23.621Z,29.1580
2023-03-27T01:20:34.697Z,29.1690
2023-03-27T01:20:45.725Z,29.1820
2023-03-27T01:20:56.917Z,29.1970
2023-03-27T01:21:11.046Z,29.3050
2023-03-27T01:21:22.106Z,29.2640
2023-03-27T01:21:33.173Z,29.2590
2023-03-27T01:21:44.223Z,29.2590
2023-03-27T01:21:55.280Z,29.2530
2023-03-27T01:22:06.315Z,29.2480
2023-03-27T01:22:17.350Z,29.2590
2023-03-27T01:22:28.409Z,29.2450
2023-03-27T01:22:39.459Z,29.2250
2023-03-27T01:22:50.509Z,29.2100
2023-03-27T01:23:01.560Z,29.1850
2023-03-27T01:23:12.617Z,29.1750
2023-03-27T01:23:58.365Z,29.1690
2023-03-27T01:23:59.883Z,29.3170
2023-03-27T01:24:00.003Z,29.4000
2023-03-27T01:24:11.878Z,29.4100
2023-03-27T01:24:22.940Z,29.3160
2023-03-27T01:24:33.983Z,29.2780
2023-03-27T01:24:45.046Z,29.2410
2023-03-27T01:24:56.131Z,29.2320
2023-03-27T01:25:07.186Z,29.2120
2023-03-27T01:25:18.244Z,29.2120
2023-03-27T01:25:29.374Z,29.1960
2023-03-27T01:25:40.419Z,29.1910
2023-03-27T01:25:51.484Z,29.1960
2023-03-27T01:26:02.544Z,29.2020
2023-03-27T01:26:13.616Z,29.2020
2023-03-27T01:26:36.187Z,29.2020
2023-03-27T01:26:41.625Z,29.3640
2023-03-27T01:26:52.689Z,29.3240
2023-03-27T01:27:03.762Z,29.2900
2023-03-27T01:27:14.801Z,29.2580
2023-03-27T01:27:25.875Z,29.2540
2023-03-27T01:27:36.946Z,29.2590
2023-03-27T01:27:48.153Z,29.2540
2023-03-27T01:27:59.186Z,29.2370
2023-03-27T01:28:10.224Z,29.2320
2023-03-27T01:28:21.278Z,29.2430
2023-03-27T01:28:32.336Z,29.2630
2023-03-27T01:28:43.409Z,29.2610
2023-03-27T01:28:54.460Z,29.2610
2023-03-27T01:29:05.525Z,29.2720
2023-03-27T01:29:16.586Z,29.2680
2023-03-27T01:29:27.647Z,29.2470
2023-03-27T01:29:38.728Z,29.2590
2023-03-27T01:29:49.787Z,29.2340
2023-03-27T01:30:00.875Z,29.2340
2023-03-27T01:30:11.934Z,29.2230
2023-03-27T01:30:22.982Z,29.2230
2023-03-27T01:30:34.073Z,29.2070
2023-03-27T01:30:45.115Z,29.2070
2023-03-27T01:30:56.376Z,29.2120
2023-03-27T01:31:07.886Z,29.2460
2023-03-27T01:31:18.966Z,29.2510
2023-03-27T01:31:30.115Z,29.2510
2023-03-27T01:31:41.280Z,29.2640
2023-03-27T01:31:52.336Z,29.2870
2023-03-27T01:32:03.405Z,29.2780
2023-03-27T01:32:14.473Z,29.2890
2023-03-27T01:32:25.558Z,29.2990
2023-03-27T01:32:36.602Z,29.2900
2023-03-27T01:32:47.690Z,29.2820
2023-03-27T01:32:58.852Z,29.2680
2023-03-27T01:33:09.956Z,29.2760
2023-03-27T01:33:21.006Z,29.2820
2023-03-27T01:33:32.070Z,29.2930
2023-03-27T01:33:43.132Z,29.2790
2023-03-27T01:33:54.150Z,29.2900
2023-03-27T01:34:05.215Z,29.2970
2023-03-27T01:34:16.264Z,29.3050
2023-03-27T01:34:27.325Z,29.3280
2023-03-27T01:34:38.387Z,29.3330
2023-03-27T01:34:49.445Z,29.3280
2023-03-27T01:35:06.407Z,29.4730
2023-03-27T01:35:17.481Z,29.4490
2023-03-27T01:35:28.545Z,29.4110
2023-03-27T01:35:39.625Z,29.3900
2023-03-27T01:35:50.734Z,29.3750
2023-03-27T01:36:01.887Z,29.3690
2023-03-27T01:36:12.947Z,29.3690
2023-03-27T01:36:23.994Z,29.3640
2023-03-27T01:36:35.058Z,29.3490
2023-03-27T01:36:46.106Z,29.3440
2023-03-27T01:36:57.172Z,29.3280
2023-03-27T01:37:08.226Z,29.3240
2023-03-27T01:37:19.267Z,29.3240
2023-03-27T01:37:30.339Z,29.3440
2023-03-27T01:37:41.417Z,29.3280
2023-03-27T01:37:52.454Z,29.3440
2023-03-27T01:38:03.504Z,29.3440
2023-03-27T01:38:14.569Z,29.3330
2023-03-27T01:38:25.637Z,29.3600
2023-03-27T01:38:36.688Z,29.3800
2023-03-27T01:38:47.748Z,29.3800
2023-03-27T01:38:58.842Z,29.3750
2023-03-27T01:39:09.857Z,29.3850
2023-03-27T01:39:20.941Z,29.3910
2023-03-27T01:39:31.951Z,29.3800
2023-03-27T01:39:42.994Z,29.4020
2023-03-27T01:39:54.067Z,29.3850
2023-03-27T01:40:05.168Z,29.3960
2023-03-27T01:40:16.220Z,29.3910
2023-03-27T01:40:27.284Z,29.4070
2023-03-27T01:40:38.338Z,29.4220
2023-03-27T01:40:49.434Z,29.4220
2023-03-27T01:41:00.488Z,29.4270
2023-03-27T01:41:11.548Z,29.4270
2023-03-27T01:41:22.601Z,29.4440
2023-03-27T01:41:33.664Z,29.4270
2023-03-27T01:41:44.741Z,29.4230
2023-03-27T01:41:55.813Z,29.4130
2023-03-27T01:42:06.860Z,29.3980
2023-03-27T01:42:17.922Z,29.3920
2023-03-27T01:42:28.977Z,29.3710
2023-03-27T01:42:40.067Z,29.3720
2023-03-27T01:42:51.110Z,29.3720
2023-03-27T01:43:02.157Z,29.3590
2023-03-27T01:43:13.217Z,29.3500
2023-03-27T01:43:24.278Z,29.3440
2023-03-27T01:43:35.349Z,29.3340
2023-03-27T01:43:46.426Z,29.3390
2023-03-27T01:43:57.498Z,29.3230
2023-03-27T01:44:08.566Z,29.3280
2023-03-27T01:44:19.605Z,29.3440
2023-03-27T01:44:36.394Z,29.3390
2023-03-27T01:44:47.633Z,29.4900
2023-03-27T01:44:58.703Z,29.4580
2023-03-27T01:45:09.749Z,29.4260
2023-03-27T01:45:20.808Z,29.4210
2023-03-27T01:45:31.871Z,29.4210
2023-03-27T01:45:42.997Z,29.4300
2023-03-27T01:45:54.058Z,29.4410
2023-03-27T01:46:05.120Z,29.4460
2023-03-27T01:46:16.207Z,29.4520
2023-03-27T01:46:27.267Z,29.4570
2023-03-27T01:46:38.347Z,29.4460
2023-03-27T01:46:49.443Z,29.4460
2023-03-27T01:47:00.502Z,29.4410
2023-03-27T01:47:11.545Z,29.4460
2023-03-27T01:47:22.629Z,29.4520
2023-03-27T01:47:33.716Z,29.4570
2023-03-27T01:47:44.802Z,29.4670
2023-03-27T01:47:55.910Z,29.4720
2023-03-27T01:48:07.026Z,29.4770
2023-03-27T01:48:18.080Z,29.4770
2023-03-27T01:48:29.108Z,29.4830
2023-03-27T01:48:40.178Z,29.4830
2023-03-27T01:48:51.231Z,29.4730
2023-03-27T01:49:02.299Z,29.4790
2023-03-27T01:49:13.352Z,29.4840
2023-03-27T01:49:24.406Z,29.4640
2023-03-27T01:49:35.472Z,29.4640
2023-03-27T01:49:46.549Z,29.4480
2023-03-27T01:49:57.576Z,29.4530
2023-03-27T01:50:08.632Z,29.4580
2023-03-27T01:50:19.708Z,29.4690
2023-03-27T01:50:30.744Z,29.4640
2023-03-27T01:50:41.764Z,29.4640
2023-03-27T01:50:52.859Z,29.4750
2023-03-27T01:51:03.917Z,29.4620
2023-03-27T01:51:15.182Z,29.4730
2023-03-27T01:51:26.271Z,29.4950
2023-03-27T01:51:37.314Z,29.5060
2023-03-27T01:51:48.371Z,29.5000
2023-03-27T01:51:59.429Z,29.4950
2023-03-27T01:52:10.492Z,29.4790
2023-03-27T01:52:21.536Z,29.4790
2023-03-27T01:52:32.629Z,29.4790
2023-03-27T01:52:43.675Z,29.4790
2023-03-27T01:52:54.708Z,29.4840
2023-03-27T01:53:05.767Z,29.5000
2023-03-27T01:53:16.838Z,29.5200
2023-03-27T01:53:27.865Z,29.5310
2023-03-27T01:53:38.926Z,29.5430
2023-03-27T01:53:50.395Z,29.5650
2023-03-27T01:54:01.480Z,29.5600
2023-03-27T01:54:12.545Z,29.5650
2023-03-27T01:54:23.610Z,29.5540
2023-03-27T01:54:34.664Z,29.5650
2023-03-27T01:54:45.706Z,29.5540
2023-03-27T01:54:56.762Z,29.5600
2023-03-27T01:55:07.852Z,29.5710
2023-03-27T01:55:18.886Z,29.5760
2023-03-27T01:55:29.946Z,29.5710
2023-03-27T01:55:41.005Z,29.5940
2023-03-27T01:55:52.055Z,29.5880
2023-03-27T01:56:03.186Z,29.6050
2023-03-27T01:56:14.255Z,29.6220
2023-03-27T01:56:25.276Z,29.6140
2023-03-27T01:56:36.369Z,29.6190
2023-03-27T01:56:47.433Z,29.6190
2023-03-27T01:56:58.508Z,29.6220
2023-03-27T01:57:09.634Z,29.6220
2023-03-27T01:57:20.714Z,29.6270
2023-03-27T01:57:31.745Z,29.6160
2023-03-27T01:57:49.124Z,29.6160
2023-03-27T01:57:59.766Z,29.7480
2023-03-27T01:58:10.840Z,29.7090
2023-03-27T01:58:21.895Z,29.6490
2023-03-27T01:58:32.924Z,29.6380
2023-03-27T01:58:43.986Z,29.6270
2023-03-27T01:58:55.047Z,29.6050
2023-03-27T01:59:06.112Z,29.6270
2023-03-27T01:59:17.177Z,29.6270
2023-03-27T01:59:28.228Z,29.6330
2023-03-27T01:59:39.280Z,29.6270
2023-03-27T01:59:50.335Z,29.6270
2023-03-27T02:00:18.679Z,29.6330
2023-03-27T02:00:19.624Z,29.7760
2023-03-27T02:00:51.717Z,29.7910
2023-03-27T02:00:52.151Z,29.8490
2023-03-27T02:01:05.413Z,29.8960
2023-03-27T02:01:16.843Z,29.8230
2023-03-27T02:01:27.907Z,29.7470
2023-03-27T02:01:38.996Z,29.6960
2023-03-27T02:01:50.022Z,29.6910
2023-03-27T02:02:01.088Z,29.6650
2023-03-27T02:02:12.144Z,29.6600
2023-03-27T02:02:23.222Z,29.6540
2023-03-27T02:02:34.251Z,29.6490
2023-03-27T02:02:45.350Z,29.6470
2023-03-27T02:02:56.458Z,29.6420
2023-03-27T02:03:07.503Z,29.6310
2023-03-27T02:03:18.553Z,29.6260
2023-03-27T02:03:29.599Z,29.6200
2023-03-27T02:03:40.669Z,29.6200
2023-03-27T02:03:51.728Z,29.6260
2023-03-27T02:04:02.767Z,29.6260
2023-03-27T02:04:13.828Z,29.6200
2023-03-27T02:04:24.893Z,29.6200
2023-03-27T02:04:35.925Z,29.6140
2023-03-27T02:04:47.071Z,29.6080
2023-03-27T02:04:58.313Z,29.6080
2023-03-27T02:05:09.463Z,29.6310
2023-03-27T02:05:20.584Z,29.6140
2023-03-27T02:05:31.644Z,29.6030
2023-03-27T02:05:42.710Z,29.6140
2023-03-27T02:05:53.765Z,29.6260
2023-03-27T02:06:04.850Z,29.6030
2023-03-27T02:06:15.881Z,29.6080
2023-03-27T02:06:26.957Z,29.6200
2023-03-27T02:06:38.028Z,29.6140
2023-03-27T02:06:49.076Z,29.6200
2023-03-27T02:07:00.137Z,29.6310
2023-03-27T02:07:11.195Z,29.6310
2023-03-27T02:07:22.280Z,29.6200
2023-03-27T02:07:33.342Z,29.6140
2023-03-27T02:07:44.402Z,29.6310
2023-03-27T02:07:55.462Z,29.6140
2023-03-27T02:08:06.526Z,29.6160
2023-03-27T02:08:17.595Z,29.6000
2023-03-27T02:08:28.632Z,29.6060
2023-03-27T02:08:39.680Z,29.6000
2023-03-27T02:08:50.727Z,29.6030
2023-03-27T02:09:01.761Z,29.6030
2023-03-27T02:09:12.820Z,29.6140
2023-03-27T02:09:23.876Z,29.6310
2023-03-27T02:09:34.940Z,29.6200
2023-03-27T02:09:45.983Z,29.6140
2023-03-27T02:09:57.036Z,29.6310
2023-03-27T02:10:08.096Z,29.6470
2023-03-27T02:10:19.185Z,29.6310
2023-03-27T02:10:30.217Z,29.6310
2023-03-27T02:10:48.763Z,29.6370
2023-03-27T02:10:59.856Z,29.8420
2023-03-27T02:11:10.909Z,29.7370
2023-03-27T02:11:21.965Z,29.7040
2023-03-27T02:11:33.035Z,29.6700
2023-03-27T02:11:44.097Z,29.6770
2023-03-27T02:11:55.162Z,29.6700
2023-03-27T02:12:06.208Z,29.6530
2023-03-27T02:12:17.278Z,29.6370
2023-03-27T02:12:28.326Z,29.6260
2023-03-27T02:12:39.391Z,29.6060
2023-03-27T02:12:50.431Z,29.5850
2023-03-27T02:13:01.480Z,29.5640
2023-03-27T02:13:12.529Z,29.5600
2023-03-27T02:13:23.598Z,29.5540
2023-03-27T02:13:34.647Z,29.5450
2023-03-27T02:13:45.717Z,29.5510
2023-03-27T02:13:56.749Z,29.5510
2023-03-27T02:14:07.806Z,29.5510
2023-03-27T02:14:18.868Z,29.5380
2023-03-27T02:14:29.925Z,29.5650
2023-03-27T02:14:40.997Z,29.5570
2023-03-27T02:14:52.058Z,29.5800
2023-03-27T02:15:22.489Z,29.5830
2023-03-27T02:15:24.600Z,29.7350
2023-03-27T02:15:37.025Z,29.8180